HESH

Sharm El Sheikh International Airport

Sharm el-Sheikh, Egypt
METAR HESH 202300Z 34004KT CAVOK 30/18 Q1005 NOSIG
Observed Flight Rules
Aug-20 @ 23:00 UTC (an hour ago) Visual Flight Rules
Wind Visibility Clouds
340° at 4 knots 10,000+ meters
  • Clear skies
Temperatures Readings
Current 30°C / 86°F
Dewpoint 18°C / 64°F
Humidity 49%
Altimeter 29.68" Hg
Pressure 1005 hPa
Elevation 50
METAR HESH 202300Z 34004KT CAVOK 30/18 Q1005 NOSIG
Observed Flight Rules
Aug-20 @ 23:00 UTC
(an hour ago)
VFR
Wind Visibility
340° at 4 knots 10,000+ meters
Clouds
  • Clear skies
Temperature Dewpoint
30°C / 86°F 18°C / 64°F
Humidity Altimeter Pressure
49% 29.68" Hg 1005 hPa